createdAt,value
2023-03-14T00:05:09.406Z,10.70
2023-03-14T00:10:15.748Z,10.30
2023-03-14T00:15:21.771Z,10.70
2023-03-14T00:20:31.279Z,10.70
2023-03-14T00:25:37.592Z,10.90
2023-03-14T00:30:49.269Z,9.60
2023-03-14T00:35:56.184Z,12.00
2023-03-14T00:41:06.102Z,10.50
2023-03-14T00:46:22.390Z,10.10
2023-03-14T00:51:31.660Z,10.50
2023-03-14T00:56:42.326Z,9.80
2023-03-14T01:01:50.109Z,12.00
2023-03-14T01:06:58.299Z,9.70
2023-03-14T01:12:05.886Z,9.80
2023-03-14T01:17:11.073Z,10.00
2023-03-14T01:22:25.550Z,11.70
2023-03-14T01:27:42.939Z,10.00
2023-03-14T01:32:53.263Z,10.20
2023-03-14T01:38:02.591Z,10.10
2023-03-14T01:43:16.401Z,10.20
2023-03-14T01:48:57.973Z,11.90
2023-03-14T01:54:07.925Z,10.20
2023-03-14T01:59:18.968Z,10.10
2023-03-14T02:04:22.531Z,10.30
2023-03-14T02:09:31.967Z,11.30
2023-03-14T02:14:38.984Z,10.10
2023-03-14T02:20:09.637Z,9.90
2023-03-14T02:25:19.129Z,10.40
2023-03-14T02:30:29.562Z,10.90
2023-03-14T02:35:35.174Z,9.30
2023-03-14T02:40:44.169Z,9.00
2023-03-14T02:46:00.447Z,10.80
2023-03-14T02:56:30.334Z,9.90
2023-03-14T03:01:38.137Z,10.70
2023-03-14T03:06:48.087Z,9.30
2023-03-14T03:11:53.762Z,9.30
2023-03-14T03:17:16.562Z,9.70
2023-03-14T03:27:50.429Z,8.90
2023-03-14T03:33:11.024Z,8.00
2023-03-14T03:38:22.698Z,10.30
2023-03-14T03:43:29.892Z,9.20
2023-03-14T03:48:37.512Z,8.80
2023-03-14T03:53:53.219Z,8.70
2023-03-14T03:59:08.966Z,8.80
2023-03-14T04:04:18.755Z,9.80
2023-03-14T04:09:39.159Z,8.30
2023-03-14T04:15:12.893Z,8.60
2023-03-14T04:20:29.934Z,8.50
2023-03-14T04:25:49.089Z,9.20
2023-03-14T04:31:29.924Z,8.50
2023-03-14T04:36:40.446Z,8.50
2023-03-14T04:41:52.596Z,8.40
2023-03-14T04:46:58.770Z,8.60
2023-03-14T04:52:11.412Z,8.40
2023-03-14T04:57:19.744Z,8.50
2023-03-14T05:02:56.950Z,8.60
2023-03-14T05:08:26.603Z,8.40
2023-03-14T05:13:58.101Z,8.30
2023-03-14T05:19:17.943Z,8.80
2023-03-14T05:24:42.454Z,8.50
2023-03-14T05:30:07.629Z,8.40
2023-03-14T05:35:26.807Z,8.50
2023-03-14T05:40:47.036Z,10.50
2023-03-14T05:46:16.727Z,8.10
2023-03-14T05:51:37.401Z,8.50
2023-03-14T05:57:04.609Z,8.60
2023-03-14T06:02:17.490Z,8.50
2023-03-14T06:07:47.670Z,8.40
2023-03-14T06:13:04.253Z,8.50
2023-03-14T06:18:23.394Z,9.30
2023-03-14T06:23:28.565Z,8.80
2023-03-14T06:28:48.316Z,8.60
2023-03-14T06:33:56.315Z,9.00
2023-03-14T06:39:16.617Z,8.70
2023-03-14T06:44:31.939Z,9.90
2023-03-14T06:49:39.038Z,8.60
2023-03-14T06:54:46.557Z,10.40
2023-03-14T07:00:00.648Z,10.70
2023-03-14T07:05:23.825Z,8.70
2023-03-14T07:10:37.953Z,8.70
2023-03-14T07:15:52.320Z,8.90
2023-03-14T07:20:56.138Z,10.60
2023-03-14T07:26:03.424Z,9.00
2023-03-14T07:31:26.481Z,8.80
2023-03-14T07:36:32.033Z,9.20
2023-03-14T07:41:42.982Z,8.80
2023-03-14T07:47:15.234Z,8.90
2023-03-14T07:52:23.112Z,9.00
2023-03-14T07:57:31.791Z,9.00
2023-03-14T08:02:40.121Z,9.20
2023-03-14T08:07:47.722Z,9.30
2023-03-14T08:12:58.241Z,10.70
2023-03-14T08:18:04.421Z,9.90
2023-03-14T08:23:11.932Z,9.60
2023-03-14T08:28:17.883Z,9.40
2023-03-14T08:33:28.211Z,11.10
2023-03-14T08:38:40.339Z,9.50
2023-03-14T08:50:08.653Z,8.00
2023-03-14T08:55:19.752Z,9.50
2023-03-14T09:00:29.108Z,11.00
2023-03-14T09:05:36.284Z,9.40
2023-03-14T09:10:39.645Z,9.50
2023-03-14T09:15:43.924Z,9.30
2023-03-14T09:20:49.200Z,9.30
2023-03-14T09:25:56.943Z,9.30
2023-03-14T09:31:00.322Z,9.30
2023-03-14T09:36:05.143Z,9.60
2023-03-14T09:41:23.167Z,9.70
2023-03-14T09:46:26.497Z,9.70
2023-03-14T09:51:32.793Z,9.70
2023-03-14T09:56:36.392Z,9.70
2023-03-14T10:01:39.581Z,10.00
2023-03-14T10:06:44.101Z,10.10
2023-03-14T10:11:47.450Z,9.90
2023-03-14T10:16:51.019Z,9.60
2023-03-14T10:21:58.041Z,9.30
2023-03-14T10:27:03.426Z,8.90
2023-03-14T10:32:34.194Z,8.90
2023-03-14T10:37:39.203Z,8.70
2023-03-14T10:42:45.928Z,8.50
2023-03-14T10:53:13.303Z,8.60
2023-03-14T10:58:22.494Z,8.80
2023-03-14T11:03:26.363Z,8.80
2023-03-14T11:08:33.940Z,8.80
2023-03-14T11:13:39.337Z,9.60
2023-03-14T11:19:03.273Z,10.40
2023-03-14T11:24:21.612Z,9.90
2023-03-14T11:29:28.386Z,9.40
2023-03-14T11:34:34.620Z,8.40
2023-03-14T11:39:42.741Z,8.00
2023-03-14T11:44:49.243Z,8.90
2023-03-14T11:49:54.151Z,8.70
2023-03-14T11:55:00.263Z,8.60
2023-03-14T12:00:05.699Z,8.20
2023-03-14T12:05:45.624Z,7.60
2023-03-14T12:10:51.995Z,7.10
2023-03-14T12:15:57.051Z,8.40
2023-03-14T12:21:01.859Z,9.70
2023-03-14T12:26:18.206Z,11.40
2023-03-14T12:31:43.694Z,10.20
2023-03-14T12:37:00.316Z,9.40
2023-03-14T12:42:06.407Z,8.60
2023-03-14T12:47:43.280Z,9.00
2023-03-14T12:52:52.877Z,9.40
2023-03-14T12:57:58.137Z,9.30
2023-03-14T13:03:04.025Z,9.20
2023-03-14T13:08:08.725Z,9.30
2023-03-14T13:13:21.018Z,9.40
2023-03-14T13:18:29.523Z,9.40
2023-03-14T13:23:33.783Z,8.90
2023-03-14T13:28:39.279Z,8.60
2023-03-14T13:33:45.489Z,9.00
2023-03-14T13:38:48.851Z,9.20
2023-03-14T13:43:53.372Z,9.10
2023-03-14T13:48:59.555Z,9.20
2023-03-14T13:54:04.175Z,9.40
2023-03-14T13:59:26.909Z,9.90
2023-03-14T14:04:31.723Z,10.00
2023-03-14T14:09:38.956Z,10.10
2023-03-14T14:14:44.969Z,11.70
2023-03-14T14:19:48.132Z,13.10
2023-03-14T14:24:52.695Z,13.50
2023-03-14T14:30:01.995Z,12.70
2023-03-14T14:35:05.779Z,12.80
2023-03-14T14:40:11.675Z,13.40
2023-03-14T14:45:19.105Z,13.00
2023-03-14T14:50:29.962Z,13.30
2023-03-14T14:55:35.050Z,12.50
2023-03-14T15:00:47.549Z,13.30
2023-03-14T15:05:53.382Z,13.10
2023-03-14T15:10:57.015Z,13.20
2023-03-14T15:16:01.827Z,12.30
2023-03-14T15:21:05.313Z,12.80
2023-03-14T15:26:13.724Z,11.50
2023-03-14T15:31:20.645Z,10.90
2023-03-14T15:36:25.462Z,10.20
2023-03-14T15:41:29.578Z,9.70
2023-03-14T15:46:38.032Z,9.40
2023-03-14T15:51:41.196Z,9.50
2023-03-14T15:56:44.416Z,9.80
2023-03-14T16:01:49.735Z,9.60
2023-03-14T16:06:53.136Z,9.20
2023-03-14T16:11:56.275Z,8.70
2023-03-14T16:17:02.287Z,8.60
2023-03-14T16:22:06.084Z,8.50
2023-03-14T16:27:09.917Z,8.40
2023-03-14T16:32:16.256Z,8.20
2023-03-14T16:37:21.523Z,8.00
2023-03-14T16:42:27.724Z,7.60
2023-03-14T16:47:32.411Z,7.40
2023-03-14T16:52:35.582Z,7.30
2023-03-14T16:57:39.110Z,7.30
2023-03-14T17:02:44.144Z,6.70
2023-03-14T17:07:47.344Z,6.50
2023-03-14T17:12:50.651Z,6.30
2023-03-14T17:17:55.475Z,6.20
2023-03-14T17:22:59.229Z,6.10
2023-03-14T17:28:02.411Z,6.10
2023-03-14T17:33:07.806Z,5.90
2023-03-14T17:38:11.209Z,5.80
2023-03-14T17:43:19.126Z,4.20
2023-03-14T17:48:24.051Z,3.60
2023-03-14T17:53:27.384Z,3.40
2023-03-14T17:58:34.375Z,3.20
2023-03-14T18:03:39.601Z,3.10
2023-03-14T18:08:44.194Z,3.00
2023-03-14T18:13:47.599Z,2.90
2023-03-14T18:18:53.999Z,3.00
2023-03-14T18:23:57.454Z,3.10
2023-03-14T18:29:01.599Z,3.10
2023-03-14T18:34:06.655Z,3.00
2023-03-14T18:39:10.601Z,3.10
2023-03-14T18:44:13.904Z,3.20
2023-03-14T18:49:20.713Z,3.40
2023-03-14T18:54:24.394Z,3.50
2023-03-14T18:59:28.056Z,3.40
2023-03-14T19:04:33.082Z,3.50
2023-03-14T19:09:36.336Z,3.60
2023-03-14T19:14:40.344Z,3.60
2023-03-14T19:19:45.276Z,3.80
2023-03-14T19:24:48.493Z,3.60
2023-03-14T19:29:54.046Z,3.40
2023-03-14T19:34:59.611Z,3.20
2023-03-14T19:40:04.158Z,3.30
2023-03-14T19:45:11.220Z,3.20
2023-03-14T19:50:15.992Z,2.90
2023-03-14T19:55:19.454Z,2.70
2023-03-14T20:00:23.319Z,2.60
2023-03-14T20:05:28.248Z,2.70
2023-03-14T20:10:32.566Z,3.10
2023-03-14T20:15:36.483Z,3.00
2023-03-14T20:20:42.728Z,3.10
2023-03-14T20:25:46.979Z,3.00
2023-03-14T20:30:50.151Z,2.90
2023-03-14T20:35:58.294Z,3.10
2023-03-14T20:41:01.841Z,3.30
2023-03-14T20:46:05.558Z,3.30
2023-03-14T20:51:12.330Z,3.30
2023-03-14T20:56:16.364Z,3.30
2023-03-14T21:01:21.166Z,3.20
2023-03-14T21:06:26.300Z,3.20
2023-03-14T21:11:29.954Z,3.00
2023-03-14T21:16:33.949Z,3.00
2023-03-14T21:21:38.799Z,2.90
2023-03-14T21:26:42.909Z,2.90
2023-03-14T21:31:47.187Z,2.70
2023-03-14T21:36:52.191Z,2.70
2023-03-14T21:41:56.114Z,2.80
2023-03-14T21:47:01.849Z,2.90
2023-03-14T21:52:08.968Z,2.70
2023-03-14T21:57:14.706Z,2.60
2023-03-14T22:02:19.040Z,2.50
2023-03-14T22:07:51.092Z,2.40
2023-03-14T22:12:56.126Z,2.30
2023-03-14T22:17:59.467Z,2.40
2023-03-14T22:23:04.550Z,2.30
2023-03-14T22:28:08.662Z,2.30
2023-03-14T22:33:14.685Z,2.20
2023-03-14T22:38:19.917Z,2.00
2023-03-14T22:43:23.609Z,2.00
2023-03-14T22:48:27.012Z,1.90
2023-03-14T22:53:31.816Z,1.90
2023-03-14T22:58:35.630Z,2.00
2023-03-14T23:03:38.814Z,1.80
2023-03-14T23:08:43.637Z,1.90
2023-03-14T23:13:48.483Z,1.70
2023-03-14T23:18:51.970Z,1.80
2023-03-14T23:23:56.692Z,1.50
2023-03-14T23:29:00.972Z,1.40
2023-03-14T23:34:04.546Z,1.40
2023-03-14T23:39:09.593Z,1.50
2023-03-14T23:44:13.896Z,1.50
2023-03-14T23:49:17.308Z,1.40
2023-03-14T23:54:22.452Z,1.20
2023-03-14T23:59:26.342Z,1.20
